Time;durP1;ratioP1;P1;durP2;ratioP2;P2;SDS_P1;SDS_P2;PMS_P1;PMS_P2;Temp;Humidity;BMP_temperature;BMP_pressure;BME280_temperature;BME280_humidity;BME280_pressure;Samples;Min_cycle;Max_cycle;Signal;HPM_P1;HPM_P2
2020/12/03 00:01:24;;;;;;;10.20;8.93;;;22.10;36.10;;;;;;5035641;28;20056;-54
2020/12/03 00:03:58;;;;;;;10.38;8.65;;;22.10;36.10;;;;;;5036801;28;20060;-53
2020/12/03 00:06:39;;;;;;;10.50;8.95;;;22.10;36.10;;;;;;5035349;28;20034;-52
2020/12/03 00:09:10;;;;;;;9.65;8.65;;;22.10;36.10;;;;;;5036498;28;20061;-54
2020/12/03 00:11:40;;;;;;;9.25;8.27;;;22.10;36.10;;;;;;5035263;28;20030;-50
2020/12/03 00:14:08;;;;;;;8.95;7.85;;;22.10;36.10;;;;;;5036359;28;20025;-50
2020/12/03 00:16:34;;;;;;;8.85;7.95;;;22.10;36.20;;;;;;5034882;28;20042;-51
2020/12/03 00:19:01;;;;;;;9.63;8.63;;;22.10;36.30;;;;;;5036122;28;20136;-50
2020/12/03 00:21:37;;;;;;;9.52;8.35;;;22.10;36.30;;;;;;5034055;28;20076;-50
2020/12/03 00:24:04;;;;;;;9.45;8.13;;;22.10;36.30;;;;;;5033825;28;20399;-53
2020/12/03 00:26:31;;;;;;;9.50;8.48;;;22.10;36.30;;;;;;5034785;28;20487;-51
2020/12/03 00:28:57;;;;;;;9.48;8.40;;;22.00;36.30;;;;;;5036160;28;20117;-51
2020/12/03 00:31:24;;;;;;;9.38;8.20;;;22.00;36.30;;;;;;5033770;28;20421;-47
2020/12/03 00:33:50;;;;;;;10.30;9.18;;;22.00;36.20;;;;;;5035226;28;20464;-50
2020/12/03 00:36:16;;;;;;;9.65;8.48;;;22.00;36.20;;;;;;5032229;28;20037;-53
2020/12/03 00:38:42;;;;;;;9.60;8.60;;;22.00;36.20;;;;;;5035503;28;20030;-52
2020/12/03 00:41:09;;;;;;;9.38;8.38;;;22.00;36.20;;;;;;5034118;28;20025;-48
2020/12/03 00:43:35;;;;;;;9.73;8.73;;;22.00;36.20;;;;;;5036008;28;20029;-50
2020/12/03 00:46:00;;;;;;;10.00;9.00;;;22.00;36.20;;;;;;5035521;28;20036;-54
2020/12/03 00:48:26;;;;;;;9.48;8.48;;;22.00;36.20;;;;;;5034673;28;20033;-49
2020/12/03 00:50:52;;;;;;;10.45;9.35;;;22.00;36.10;;;;;;5016042;28;20346;-51
2020/12/03 00:53:19;;;;;;;9.55;8.65;;;22.00;36.20;;;;;;5018113;28;20423;-51
2020/12/03 00:55:46;;;;;;;9.95;8.95;;;22.00;36.20;;;;;;5016931;28;20373;-52
2020/12/03 00:58:15;;;;;;;9.68;8.68;;;21.90;36.10;;;;;;5016861;28;20095;-51
2020/12/03 01:00:41;;;;;;;9.63;8.68;;;21.90;36.10;;;;;;5033999;28;20060;-52
2020/12/03 01:03:07;;;;;;;10.13;9.13;;;21.90;36.10;;;;;;5035407;28;20033;-54
2020/12/03 01:05:33;;;;;;;10.07;8.82;;;21.90;36.10;;;;;;5034291;28;20026;-50
2020/12/03 01:07:59;;;;;;;10.23;9.15;;;21.90;36.10;;;;;;5034928;28;20036;-51
2020/12/03 01:10:29;;;;;;;9.75;8.75;;;21.90;36.10;;;;;;5034338;28;20036;-49
2020/12/03 01:12:55;;;;;;;9.70;8.68;;;21.90;36.20;;;;;;5032837;28;20468;-53
2020/12/03 01:15:21;;;;;;;9.55;8.50;;;21.90;36.20;;;;;;5031832;28;20053;-54
2020/12/03 01:17:48;;;;;;;9.73;8.73;;;21.90;36.10;;;;;;5034854;28;20377;-51
2020/12/03 01:20:18;;;;;;;9.52;8.52;;;21.90;36.20;;;;;;5029932;28;20033;-53
2020/12/03 01:22:45;;;;;;;10.88;9.43;;;21.90;36.20;;;;;;5034732;28;20354;-52
2020/12/03 01:25:11;;;;;;;10.60;8.90;;;21.80;36.20;;;;;;5034060;28;20061;-49
2020/12/03 01:27:38;;;;;;;9.35;8.35;;;21.80;36.10;;;;;;5034996;28;20029;-56
2020/12/03 01:30:07;;;;;;;10.57;9.48;;;21.80;36.20;;;;;;5031842;28;20029;-51
2020/12/03 01:32:33;;;;;;;9.52;8.52;;;21.80;36.20;;;;;;5034890;28;20033;-55
2020/12/03 01:34:59;;;;;;;10.07;8.98;;;21.80;36.20;;;;;;5033647;28;20026;-51
2020/12/03 01:37:24;;;;;;;10.70;9.40;;;21.80;36.20;;;;;;5034233;28;20353;-56
2020/12/03 01:39:50;;;;;;;8.98;8.05;;;21.80;36.20;;;;;;5035166;28;20115;-54
2020/12/03 01:42:17;;;;;;;9.50;8.48;;;21.80;36.20;;;;;;5034076;28;20144;-48
2020/12/03 01:44:46;;;;;;;9.63;8.63;;;21.80;36.20;;;;;;5033270;28;20170;-53
2020/12/03 01:47:21;;;;;;;10.65;9.02;;;21.80;36.20;;;;;;5034009;28;20072;-52
2020/12/03 01:49:47;;;;;;;10.13;8.95;;;21.80;36.20;;;;;;5032888;28;20091;-51
2020/12/03 01:52:13;;;;;;;10.43;9.05;;;21.70;36.10;;;;;;5032989;28;20021;-49
2020/12/03 01:54:39;;;;;;;9.98;8.80;;;21.80;36.20;;;;;;5032526;28;20080;-52
2020/12/03 01:57:20;;;;;;;9.55;8.55;;;21.70;36.10;;;;;;5034857;28;20049;-48
2020/12/03 02:00:08;;;;;;;9.57;8.57;;;21.80;36.80;;;;;;5016078;28;20381;-50
2020/12/03 02:02:41;;;;;;;10.80;9.13;;;21.80;36.20;;;;;;5034069;28;20045;-50
2020/12/03 02:05:11;;;;;;;9.50;8.25;;;21.70;36.20;;;;;;5033419;28;20357;-54
2020/12/03 02:07:38;;;;;;;9.52;8.50;;;21.70;36.20;;;;;;5034539;28;20116;-50
2020/12/03 02:10:05;;;;;;;9.55;8.15;;;21.70;36.20;;;;;;5029581;28;20036;-52
2020/12/03 02:12:31;;;;;;;10.55;8.40;;;21.70;36.20;;;;;;5034109;28;20040;-52
2020/12/03 02:14:57;;;;;;;10.27;8.50;;;21.70;36.20;;;;;;5033149;28;20033;-49
2020/12/03 02:17:23;;;;;;;8.80;7.90;;;21.70;36.20;;;;;;5027793;28;20474;-54
2020/12/03 02:20:00;;;;;;;10.05;8.65;;;21.70;36.10;;;;;;5033315;28;20080;-52
2020/12/03 02:22:26;;;;;;;10.05;7.90;;;21.70;36.10;;;;;;5030033;28;20049;-51
2020/12/03 02:24:52;;;;;;;9.93;8.18;;;21.70;36.20;;;;;;5015602;28;20052;-52
2020/12/03 02:27:22;;;;;;;8.60;7.70;;;21.70;36.20;;;;;;5034128;28;20025;-52
2020/12/03 02:29:48;;;;;;;9.45;8.07;;;21.70;36.10;;;;;;5032431;28;20422;-52
2020/12/03 02:32:15;;;;;;;8.88;7.97;;;21.70;36.10;;;;;;5033911;28;20044;-51
2020/12/03 02:34:41;;;;;;;9.15;7.68;;;21.70;36.20;;;;;;5033307;28;20108;-50
2020/12/03 02:37:08;;;;;;;7.63;6.72;;;21.60;36.30;;;;;;5014398;28;20120;-54
2020/12/03 02:39:35;;;;;;;9.27;7.60;;;21.60;36.30;;;;;;5030256;28;20033;-52
2020/12/03 02:42:03;;;;;;;8.90;7.95;;;21.60;36.40;;;;;;5033482;28;20029;-51
2020/12/03 02:44:29;;;;;;;9.38;7.55;;;21.60;36.30;;;;;;5032953;28;20032;-54
2020/12/03 02:46:55;;;;;;;8.93;7.45;;;21.60;36.30;;;;;;5033917;28;20029;-57
2020/12/03 02:49:21;;;;;;;8.52;7.53;;;21.60;36.20;;;;;;5031680;28;20104;-53
2020/12/03 02:51:47;;;;;;;10.13;7.63;;;21.60;36.10;;;;;;5031811;28;20033;-50
2020/12/03 02:54:13;;;;;;;9.13;7.20;;;21.60;36.10;;;;;;5032664;28;20029;-52
2020/12/03 02:56:39;;;;;;;9.20;7.30;;;21.60;36.10;;;;;;5032268;28;20037;-56
2020/12/03 02:59:07;;;;;;;7.70;6.43;;;21.60;36.10;;;;;;5011830;28;21641;-55
2020/12/03 03:01:33;;;;;;;8.25;7.30;;;21.60;36.10;;;;;;5033210;28;20033;-55
2020/12/03 03:04:03;;;;;;;9.02;7.18;;;21.60;36.10;;;;;;5031149;28;20352;-55
2020/12/03 03:06:29;;;;;;;7.45;6.65;;;21.60;36.10;;;;;;5015032;28;20398;-55
2020/12/03 03:08:55;;;;;;;9.80;6.70;;;21.60;36.10;;;;;;5032645;28;20033;-56
2020/12/03 03:11:21;;;;;;;7.72;6.70;;;21.60;36.10;;;;;;5029509;28;20029;-50
2020/12/03 03:13:46;;;;;;;8.38;7.20;;;21.60;36.10;;;;;;5015530;28;20045;-49
2020/12/03 03:16:12;;;;;;;8.05;6.63;;;21.50;36.00;;;;;;5031949;28;20059;-50
2020/12/03 03:18:38;;;;;;;7.88;6.80;;;21.50;36.00;;;;;;5032019;28;20080;-49
2020/12/03 03:21:04;;;;;;;8.80;6.72;;;21.50;36.00;;;;;;5032427;28;20030;-50
2020/12/03 03:23:30;;;;;;;7.90;6.63;;;21.50;36.00;;;;;;5032296;28;20258;-50
2020/12/03 03:25:55;;;;;;;7.53;6.18;;;21.50;36.00;;;;;;5032962;28;20026;-52
2020/12/03 03:28:21;;;;;;;7.82;6.60;;;21.50;36.00;;;;;;5031927;28;20052;-46
2020/12/03 03:30:47;;;;;;;7.57;6.72;;;21.50;36.00;;;;;;5032139;28;20033;-48
2020/12/03 03:33:13;;;;;;;7.57;6.53;;;21.50;36.00;;;;;;5032437;28;20179;-50
2020/12/03 03:35:38;;;;;;;8.18;6.57;;;21.50;36.60;;;;;;5032425;28;20021;-51
2020/12/03 03:38:04;;;;;;;8.00;6.53;;;21.50;36.00;;;;;;5028019;28;20030;-49
2020/12/03 03:40:30;;;;;;;7.57;6.18;;;21.50;36.00;;;;;;5033137;28;20124;-51
2020/12/03 03:42:56;;;;;;;7.60;6.57;;;21.50;36.00;;;;;;5031423;28;20025;-49
2020/12/03 03:45:22;;;;;;;8.13;6.45;;;21.50;36.00;;;;;;5032080;28;20107;-50
2020/12/03 03:47:50;;;;;;;8.70;6.63;;;21.50;36.60;;;;;;5031590;28;20052;-49
2020/12/03 03:50:16;;;;;;;8.55;6.57;;;21.50;36.00;;;;;;5032517;28;20033;-52
2020/12/03 03:52:42;;;;;;;8.27;6.13;;;21.50;36.60;;;;;;5031456;28;20052;-49
2020/12/03 03:55:08;;;;;;;6.63;5.85;;;21.50;36.00;;;;;;5032324;28;20053;-49
2020/12/03 03:57:34;;;;;;;7.15;6.00;;;21.50;36.30;;;;;;5031862;28;20057;-48
2020/12/03 03:59:59;;;;;;;7.47;6.60;;;21.50;36.00;;;;;;5032088;28;20099;-52
2020/12/03 04:02:25;;;;;;;7.22;5.85;;;21.50;36.00;;;;;;5032356;28;20737;-51
2020/12/03 04:04:52;;;;;;;7.72;6.18;;;21.40;35.90;;;;;;5030311;28;20472;-50
2020/12/03 04:07:18;;;;;;;7.07;5.80;;;21.40;36.00;;;;;;5031632;28;20427;-53
2020/12/03 04:09:46;;;;;;;7.35;5.97;;;21.40;36.00;;;;;;5012723;28;20341;-51
2020/12/03 04:12:12;;;;;;;6.63;5.65;;;21.40;36.00;;;;;;5031894;28;20029;-51
2020/12/03 04:14:38;;;;;;;8.68;5.88;;;21.40;36.00;;;;;;5032191;28;20333;-51
2020/12/03 04:17:04;;;;;;;7.22;5.47;;;21.40;36.00;;;;;;5028849;28;20037;-51
2020/12/03 04:19:29;;;;;;;7.50;5.70;;;21.40;36.00;;;;;;5032657;28;20044;-51
2020/12/03 04:21:55;;;;;;;7.07;5.88;;;21.40;36.00;;;;;;5031068;28;20021;-50
2020/12/03 04:24:21;;;;;;;7.30;5.57;;;21.40;36.00;;;;;;5032364;28;20152;-51
2020/12/03 04:26:47;;;;;;;7.03;5.80;;;21.40;36.10;;;;;;5031671;28;20045;-51
2020/12/03 04:29:16;;;;;;;6.68;5.43;;;21.40;36.10;;;;;;5032476;28;20033;-51
2020/12/03 04:31:43;;;;;;;6.85;5.78;;;21.40;36.10;;;;;;5031302;28;20117;-53
2020/12/03 04:34:09;;;;;;;6.95;5.38;;;21.40;36.00;;;;;;5035364;28;20344;-53
2020/12/03 04:36:36;;;;;;;7.20;5.55;;;21.40;36.00;;;;;;5034978;28;20029;-52
2020/12/03 04:39:03;;;;;;;6.95;5.30;;;21.40;36.00;;;;;;5035598;28;20033;-50
2020/12/03 04:41:29;;;;;;;6.63;5.15;;;21.40;36.00;;;;;;5034227;28;20168;-49
2020/12/03 04:44:05;;;;;;;6.90;5.57;;;21.40;36.00;;;;;;5035300;28;20048;-50
2020/12/03 04:46:39;;;;;;;7.60;5.65;;;21.40;36.00;;;;;;5034982;28;20036;-52
2020/12/03 04:49:32;;;;;;;5.97;5.18;;;21.40;36.00;;;;;;5035260;28;20056;-49
2020/12/03 04:52:26;;;;;;;8.68;5.60;;;21.40;36.00;;;;;;5033680;28;20036;-49
2020/12/03 04:55:17;;;;;;;7.47;5.68;;;21.40;36.00;;;;;;5035065;28;20026;-52
2020/12/03 04:58:07;;;;;;;6.85;5.00;;;21.30;36.00;;;;;;5035211;28;20104;-51
2020/12/03 05:00:39;;;;;;;7.20;5.15;;;21.30;36.00;;;;;;5033185;28;20041;-51
2020/12/03 05:03:27;;;;;;;5.80;4.82;;;21.30;36.00;;;;;;5033004;28;20056;-52
2020/12/03 05:06:30;;;;;;;8.07;5.55;;;21.30;36.00;;;;;;5034128;28;20051;-51
2020/12/03 05:09:11;;;;;;;5.28;4.40;;;21.30;36.00;;;;;;5031380;28;20080;-56
2020/12/03 05:11:53;;;;;;;6.80;5.28;;;21.30;36.10;;;;;;5034827;28;20408;-51
2020/12/03 05:14:42;;;;;;;6.43;5.05;;;21.30;36.10;;;;;;5034727;28;20110;-57
2020/12/03 05:17:16;;;;;;;6.78;4.20;;;21.30;36.10;;;;;;5032338;28;20049;-50
2020/12/03 05:19:54;;;;;;;7.70;4.90;;;21.30;36.10;;;;;;5034427;28;20029;-52
2020/12/03 05:22:22;;;;;;;6.15;5.13;;;21.30;36.10;;;;;;5034814;28;20057;-51
2020/12/03 05:24:49;;;;;;;6.68;4.78;;;21.30;36.10;;;;;;5033720;28;20095;-52
2020/12/03 05:27:27;;;;;;;6.05;4.60;;;21.20;36.10;;;;;;5034172;28;20029;-51
2020/12/03 05:29:55;;;;;;;6.35;4.60;;;21.20;36.10;;;;;;5032196;28;20064;-49
2020/12/03 05:32:21;;;;;;;7.28;4.75;;;21.20;36.10;;;;;;5031723;28;20038;-52
2020/12/03 05:34:47;;;;;;;6.85;4.93;;;21.20;36.10;;;;;;5035071;28;20025;-53
2020/12/03 05:37:16;;;;;;;5.93;4.50;;;21.30;36.20;;;;;;5034751;28;20322;-49
2020/12/03 05:39:44;;;;;;;8.23;4.32;;;21.20;36.10;;;;;;5034580;28;20033;-51
2020/12/03 05:42:20;;;;;;;6.75;5.00;;;21.30;36.20;;;;;;5033720;28;20053;-54
2020/12/03 05:44:55;;;;;;;6.85;4.97;;;21.20;36.10;;;;;;5033803;28;20075;-49
2020/12/03 05:47:32;;;;;;;6.10;4.88;;;21.20;36.10;;;;;;5034025;28;20054;-52
2020/12/03 05:50:07;;;;;;;5.88;4.45;;;21.20;36.10;;;;;;5031867;28;20472;-53
2020/12/03 05:52:35;;;;;;;5.68;4.50;;;21.20;36.20;;;;;;5033308;28;20069;-53
2020/12/03 05:55:03;;;;;;;5.65;4.40;;;21.20;36.20;;;;;;5034695;28;20039;-55
2020/12/03 05:57:35;;;;;;;6.55;4.43;;;21.20;36.20;;;;;;5033060;28;20037;-49
2020/12/03 06:00:16;;;;;;;5.97;4.30;;;21.20;36.20;;;;;;5034723;28;20049;-55
2020/12/03 06:03:12;;;;;;;6.78;4.60;;;21.20;36.20;;;;;;5033153;28;20041;-52
2020/12/03 06:05:56;;;;;;;5.38;3.80;;;21.20;36.20;;;;;;5033055;28;20407;-51
2020/12/03 06:08:51;;;;;;;5.95;4.05;;;21.20;36.20;;;;;;5014736;28;20044;-49
2020/12/03 06:11:36;;;;;;;;;;;21.20;36.30;;;;;;5034020;28;20033;-51
2020/12/03 06:14:26;;;;;;;5.32;4.20;;;21.10;36.30;;;;;;5033380;28;19909;-50
2020/12/03 06:17:13;;;;;;;5.75;4.13;;;21.20;36.30;;;;;;5033388;28;20025;-49
2020/12/03 06:20:18;;;;;;;5.32;4.05;;;21.20;36.40;;;;;;5033866;28;20125;-50
2020/12/03 06:22:55;;;;;;;5.85;4.15;;;21.10;36.30;;;;;;5010607;28;20053;-55
2020/12/03 06:25:40;;;;;;;5.07;4.20;;;21.10;36.40;;;;;;5032322;28;20029;-51
2020/12/03 06:28:41;;;;;;;5.00;3.80;;;21.10;37.00;;;;;;5030408;28;20120;-52
2020/12/03 06:31:37;;;;;;;4.18;3.38;;;21.10;36.40;;;;;;5001629;28;20034;-52
2020/12/03 06:34:28;;;;;;;5.10;3.53;;;21.10;36.40;;;;;;5014794;28;20388;-51
2020/12/03 06:36:59;;;;;;;4.57;3.38;;;21.10;36.50;;;;;;5033628;28;20052;-52
2020/12/03 06:39:35;;;;;;;5.13;3.50;;;21.10;36.50;;;;;;5032743;28;20048;-51
2020/12/03 06:42:18;;;;;;;4.80;3.40;;;21.10;36.50;;;;;;5033686;28;20029;-53
2020/12/03 06:45:21;;;;;;;4.38;3.33;;;21.10;36.60;;;;;;5032895;28;20111;-51
2020/12/03 06:48:00;;;;;;;3.45;3.15;;;21.10;36.50;;;;;;5019027;28;20049;-56
2020/12/03 06:51:01;;;;;;;3.85;3.42;;;21.10;36.60;;;;;;5033772;28;20111;-55
2020/12/03 06:53:29;;;;;;;3.80;2.88;;;21.10;36.60;;;;;;4985685;28;20604;-54
2020/12/03 06:56:21;;;;;;;3.63;2.90;;;21.10;36.60;;;;;;5024367;28;20045;-56
2020/12/03 06:59:02;;;;;;;4.05;3.13;;;21.10;36.60;;;;;;5032884;28;20492;-57
2020/12/03 07:01:46;;;;;;;4.50;3.35;;;21.10;36.60;;;;;;5032752;28;20025;-52
2020/12/03 07:04:55;;;;;;;4.25;3.20;;;21.10;36.60;;;;;;5010740;28;20037;-54
2020/12/03 07:07:36;;;;;;;3.45;2.72;;;21.10;36.60;;;;;;5032739;28;20392;-51
2020/12/03 07:10:34;;;;;;;3.67;2.90;;;21.00;36.60;;;;;;5033536;28;20025;-52
2020/12/03 07:13:21;;;;;;;3.38;2.60;;;21.10;36.70;;;;;;5029621;28;20104;-53
2020/12/03 07:16:21;;;;;;;3.88;2.70;;;21.00;36.60;;;;;;5033241;28;20132;-53
2020/12/03 07:18:50;;;;;;;3.47;2.67;;;21.00;36.60;;;;;;5032769;28;20133;-50
2020/12/03 07:21:47;;;;;;;2.97;2.50;;;21.00;36.70;;;;;;5031157;28;20029;-52
2020/12/03 07:24:29;;;;;;;3.03;2.63;;;21.00;36.60;;;;;;5032737;28;20109;-50
2020/12/03 07:27:10;;;;;;;3.40;2.78;;;21.00;36.70;;;;;;5031491;28;20034;-53
2020/12/03 07:29:55;;;;;;;3.70;3.00;;;21.00;36.70;;;;;;5032567;28;20056;-53
2020/12/03 07:32:36;;;;;;;3.30;2.63;;;21.00;36.70;;;;;;5029238;28;20029;-54
2020/12/03 07:35:24;;;;;;;3.10;2.50;;;21.00;36.70;;;;;;5033161;28;20022;-50
2020/12/03 07:38:11;;;;;;;3.22;2.60;;;21.00;36.70;;;;;;5032999;28;20021;-50
2020/12/03 07:40:37;;;;;;;2.83;2.53;;;21.00;36.70;;;;;;5033639;28;20076;-50
2020/12/03 07:43:19;;;;;;;3.65;2.67;;;21.00;36.80;;;;;;5030114;28;20052;-51
2020/12/03 07:45:48;;;;;;;4.07;2.75;;;21.00;36.90;;;;;;5032648;28;20083;-48
2020/12/03 07:48:20;;;;;;;3.63;2.63;;;21.00;36.90;;;;;;5013799;28;20341;-52
2020/12/03 07:50:50;;;;;;;4.50;3.30;;;21.00;36.90;;;;;;5032051;28;20032;-54
2020/12/03 07:53:21;;;;;;;5.03;2.60;;;21.00;36.90;;;;;;5029724;28;20026;-50
2020/12/03 07:55:47;;;;;;;3.90;3.10;;;21.00;36.90;;;;;;5031901;28;20030;-51
2020/12/03 07:58:36;;;;;;;4.00;2.65;;;21.00;36.80;;;;;;5032318;28;20029;-51
2020/12/03 08:01:27;;;;;;;4.03;2.90;;;21.00;36.80;;;;;;5030782;28;20037;-54
2020/12/03 08:04:09;;;;;;;4.35;2.90;;;21.00;36.80;;;;;;5029601;28;20079;-60
2020/12/03 08:06:37;;;;;;;4.32;2.88;;;21.00;36.90;;;;;;5029905;28;20111;-54
2020/12/03 08:09:03;;;;;;;3.88;2.80;;;21.10;37.40;;;;;;5034720;28;20032;-53
2020/12/03 08:11:44;;;;;;;4.25;2.65;;;21.10;37.40;;;;;;5034987;28;20034;-52
2020/12/03 08:14:29;;;;;;;4.38;3.17;;;21.30;37.30;;;;;;5035857;28;20048;-56
2020/12/03 08:16:58;;;;;;;6.05;3.08;;;21.30;37.10;;;;;;5033398;28;20044;-54
2020/12/03 08:19:28;;;;;;;6.93;3.15;;;21.50;37.00;;;;;;5036458;28;20036;-53
2020/12/03 08:21:54;;;;;;;3.83;2.78;;;21.60;36.80;;;;;;5032931;28;20037;-51
2020/12/03 08:24:28;;;;;;;5.32;2.90;;;21.70;36.70;;;;;;5034337;28;20145;-48
2020/12/03 08:27:17;;;;;;;4.82;2.83;;;21.80;36.50;;;;;;5033775;28;20025;-49
2020/12/03 08:29:42;;;;;;;2.67;2.25;;;22.00;36.40;;;;;;5032045;28;20029;-51
2020/12/03 08:32:08;;;;;;;3.83;2.70;;;22.10;36.30;;;;;;5034253;28;20456;-54
2020/12/03 08:34:35;;;;;;;3.55;2.40;;;22.20;36.10;;;;;;5035614;28;20033;-50
2020/12/03 08:37:17;;;;;;;3.67;2.70;;;22.30;36.00;;;;;;5029074;28;20034;-52
2020/12/03 08:39:45;;;;;;;4.45;2.42;;;22.40;35.80;;;;;;5032008;28;20041;-53
2020/12/03 08:42:12;;;;;;;3.80;2.33;;;22.50;35.70;;;;;;5036902;28;20123;-53
2020/12/03 08:44:40;;;;;;;3.30;2.45;;;22.70;35.60;;;;;;5034367;28;20057;-51
2020/12/03 08:47:11;;;;;;;2.80;2.28;;;22.80;35.50;;;;;;5035176;28;20021;-51
2020/12/03 08:49:42;;;;;;;3.92;2.20;;;22.90;35.40;;;;;;5031752;28;20033;-54
2020/12/03 08:52:08;;;;;;;3.63;2.08;;;23.00;35.30;;;;;;5034143;28;20025;-55
2020/12/03 08:54:34;;;;;;;3.08;2.30;;;23.00;35.10;;;;;;5025779;28;20048;-54
2020/12/03 08:57:08;;;;;;;2.70;2.22;;;23.10;35.00;;;;;;5032792;28;20056;-55
2020/12/03 08:59:38;;;;;;;3.72;2.25;;;23.20;34.90;;;;;;5034474;28;20045;-53
2020/12/03 09:02:10;;;;;;;3.60;2.35;;;23.30;34.80;;;;;;5034933;28;20360;-57
2020/12/03 09:04:44;;;;;;;5.57;2.10;;;23.40;34.70;;;;;;5034310;28;20032;-53
2020/12/03 09:07:14;;;;;;;2.30;1.85;;;23.50;34.60;;;;;;5032538;28;20460;-54
2020/12/03 09:09:44;;;;;;;2.15;1.80;;;23.60;34.50;;;;;;5035865;28;20360;-53
2020/12/03 09:12:14;;;;;;;4.15;2.13;;;23.70;34.40;;;;;;5035316;28;20037;-53
2020/12/03 09:14:42;;;;;;;3.22;2.20;;;23.80;34.30;;;;;;5019374;28;20421;-55
2020/12/03 09:17:10;;;;;;;3.60;1.80;;;23.80;34.20;;;;;;5027996;28;20037;-54
2020/12/03 09:19:36;;;;;;;3.70;1.70;;;23.90;34.70;;;;;;5016045;28;20075;-54
2020/12/03 09:22:02;;;;;;;2.70;1.65;;;24.00;33.90;;;;;;5013665;28;20100;-52
2020/12/03 09:24:29;;;;;;;3.60;1.83;;;24.10;33.80;;;;;;4998590;28;20026;-52
2020/12/03 09:27:04;;;;;;;1.92;1.42;;;24.10;33.80;;;;;;5009515;28;20357;-55
2020/12/03 09:29:30;;;;;;;3.00;1.90;;;24.20;33.60;;;;;;5016794;28;20069;-54
2020/12/03 09:32:04;;;;;;;2.17;1.50;;;24.30;33.50;;;;;;5013355;28;20442;-51
2020/12/03 09:34:35;;;;;;;2.85;1.90;;;24.40;33.40;;;;;;4997223;28;20031;-49
2020/12/03 09:37:05;;;;;;;2.17;1.65;;;24.40;33.20;;;;;;4998310;28;20326;-51
2020/12/03 09:39:35;;;;;;;1.80;1.40;;;24.50;33.10;;;;;;4996997;28;20133;-54
2020/12/03 09:42:03;;;;;;;2.50;1.60;;;24.60;33.10;;;;;;4999174;28;20319;-51
2020/12/03 09:44:35;;;;;;;2.65;1.60;;;24.70;33.00;;;;;;4998985;28;20038;-55
2020/12/03 09:47:24;;;;;;;1.90;1.50;;;24.70;32.80;;;;;;5007756;28;20034;-54
2020/12/03 09:49:51;;;;;;;2.65;1.42;;;24.80;32.70;;;;;;5016413;28;20088;-54
2020/12/03 09:52:19;;;;;;;1.70;1.52;;;24.80;32.70;;;;;;5013026;28;20030;-53
2020/12/03 09:54:44;;;;;;;2.08;1.20;;;24.90;32.60;;;;;;5016577;28;20099;-55
2020/12/03 09:57:12;;;;;;;1.80;1.30;;;24.90;32.50;;;;;;5006656;28;20046;-53
2020/12/03 09:59:38;;;;;;;2.55;1.55;;;25.00;32.40;;;;;;4996967;28;20053;-55
2020/12/03 10:02:08;;;;;;;1.63;1.35;;;25.00;32.30;;;;;;5004724;28;20038;-52
2020/12/03 10:04:54;;;;;;;2.03;1.33;;;25.10;32.30;;;;;;5000614;28;20093;-54
2020/12/03 10:07:23;;;;;;;2.05;1.45;;;25.10;32.20;;;;;;5016288;28;20034;-54
2020/12/03 10:10:27;;;;;;;1.75;1.33;;;25.10;32.10;;;;;;5003239;28;20457;-48
2020/12/03 10:13:25;;;;;;;2.20;1.33;;;25.10;32.00;;;;;;4996407;28;20030;-50
2020/12/03 10:16:04;;;;;;;2.65;1.30;;;25.20;32.00;;;;;;5016067;28;20113;-50
2020/12/03 10:18:51;;;;;;;1.58;1.35;;;25.20;31.90;;;;;;5002573;28;20112;-53
2020/12/03 10:21:23;;;;;;;2.10;1.23;;;25.20;31.80;;;;;;4997390;28;20101;-51
2020/12/03 10:24:13;;;;;;;2.00;1.48;;;25.20;31.80;;;;;;4998318;28;20058;-52
2020/12/03 10:26:48;;;;;;;2.45;1.63;;;25.20;31.70;;;;;;4993253;28;20450;-52
2020/12/03 10:29:32;;;;;;;1.55;1.25;;;25.30;31.70;;;;;;5015717;28;20096;-50
2020/12/03 10:31:59;;;;;;;2.50;1.17;;;25.30;31.70;;;;;;5014506;28;20063;-52
2020/12/03 10:34:29;;;;;;;1.60;1.17;;;25.30;31.60;;;;;;5015835;28;20036;-52
2020/12/03 10:37:06;;;;;;;2.17;1.42;;;25.30;31.60;;;;;;5014050;28;20058;-50
2020/12/03 10:39:43;;;;;;;2.45;1.45;;;25.30;31.60;;;;;;5015671;28;20056;-51
2020/12/03 10:42:12;;;;;;;3.28;1.42;;;25.30;31.50;;;;;;5012423;28;20029;-50
2020/12/03 10:44:44;;;;;;;2.20;1.60;;;25.30;31.50;;;;;;5013911;28;20029;-53
2020/12/03 10:47:13;;;;;;;2.45;1.50;;;25.30;31.50;;;;;;5007076;28;20089;-50
2020/12/03 10:49:42;;;;;;;2.22;1.60;;;25.30;31.60;;;;;;5012904;28;20092;-51
2020/12/03 10:52:10;;;;;;;3.10;1.90;;;25.30;31.70;;;;;;5009257;28;20045;-50
2020/12/03 10:54:36;;;;;;;2.38;1.83;;;25.30;31.80;;;;;;5014707;28;20033;-56
2020/12/03 10:57:16;;;;;;;2.83;1.88;;;25.30;31.80;;;;;;5002025;28;20049;-54
2020/12/03 10:59:42;;;;;;;4.72;1.90;;;25.30;31.90;;;;;;5000719;28;20060;-51
2020/12/03 11:02:26;;;;;;;1.92;1.67;;;25.30;31.90;;;;;;5014889;28;20037;-50
2020/12/03 11:04:53;;;;;;;2.45;1.95;;;25.30;31.80;;;;;;5012899;28;20049;-48
2020/12/03 11:07:19;;;;;;;2.60;2.08;;;25.30;31.80;;;;;;5000444;28;20113;-56
2020/12/03 11:09:51;;;;;;;2.45;1.98;;;25.30;31.90;;;;;;5002340;28;20117;-53
2020/12/03 11:12:18;;;;;;;3.08;1.83;;;25.30;31.80;;;;;;4995535;28;20197;-50
2020/12/03 11:14:45;;;;;;;4.38;2.15;;;25.30;31.90;;;;;;5004291;28;20037;-52
2020/12/03 11:17:36;;;;;;;3.45;1.98;;;25.30;32.00;;;;;;5009532;28;20066;-52
2020/12/03 11:20:04;;;;;;;3.25;2.10;;;25.30;32.10;;;;;;5014169;28;20073;-53
2020/12/03 11:22:41;;;;;;;2.78;2.22;;;25.30;32.10;;;;;;5017391;28;20068;-50
2020/12/03 11:25:14;;;;;;;5.55;2.40;;;25.30;32.10;;;;;;5014698;28;20042;-53
2020/12/03 11:27:42;;;;;;;2.97;2.03;;;25.30;32.10;;;;;;5031965;28;20029;-51
2020/12/03 11:30:19;;;;;;;1.98;1.50;;;25.30;32.10;;;;;;5033080;28;20105;-50
2020/12/03 11:32:49;;;;;;;2.80;1.77;;;25.30;32.10;;;;;;5033429;28;20333;-49
2020/12/03 11:35:27;;;;;;;1.90;1.63;;;25.20;32.00;;;;;;5033849;28;20033;-50
2020/12/03 11:37:54;;;;;;;2.22;1.73;;;25.30;32.10;;;;;;5032888;28;20344;-50
2020/12/03 11:40:46;;;;;;;4.10;2.10;;;25.30;32.10;;;;;;5033172;28;20132;-52
2020/12/03 11:43:33;;;;;;;2.05;1.73;;;25.30;32.00;;;;;;5032526;28;20107;-53
2020/12/03 11:48:57;;;;;;;2.90;1.87;;;25.30;32.20;;;;;;5021255;28;20144;-48
2020/12/03 11:51:30;;;;;;;2.42;1.83;;;25.20;32.20;;;;;;5026919;28;20105;-54
2020/12/03 11:53:57;;;;;;;5.85;1.92;;;25.30;32.30;;;;;;5027481;28;20050;-51
2020/12/03 11:56:23;;;;;;;3.25;1.90;;;25.20;32.20;;;;;;5014631;28;20434;-53
2020/12/03 11:58:49;;;;;;;3.35;1.83;;;25.30;32.30;;;;;;5033634;28;20040;-55
2020/12/03 12:01:16;;;;;;;4.35;2.60;;;25.30;32.40;;;;;;5031112;28;20440;-58
2020/12/03 12:03:45;;;;;;;4.93;2.25;;;25.30;32.60;;;;;;5033265;28;20360;-48
2020/12/03 12:06:38;;;;;;;2.97;1.80;;;25.30;32.90;;;;;;5028832;28;20021;-54
2020/12/03 12:09:17;;;;;;;3.95;1.90;;;25.30;33.00;;;;;;5032219;28;20073;-58
2020/12/03 12:11:47;;;;;;;5.68;1.77;;;25.40;32.90;;;;;;5030505;28;20121;-58
2020/12/03 12:14:13;;;;;;;3.55;2.03;;;25.40;32.70;;;;;;5031409;28;20417;-58
2020/12/03 12:16:39;;;;;;;2.15;1.70;;;25.40;32.30;;;;;;5032813;28;20029;-58
2020/12/03 12:19:11;;;;;;;2.38;1.70;;;25.50;32.30;;;;;;5029726;28;20037;-56
2020/12/03 12:21:37;;;;;;;2.92;1.80;;;25.60;32.20;;;;;;5048291;28;20048;-51
2020/12/03 12:24:03;;;;;;;2.15;1.65;;;25.60;32.00;;;;;;5013121;28;20128;-57
2020/12/03 12:26:29;;;;;;;2.20;1.67;;;25.70;31.90;;;;;;5023742;28;20112;-49
2020/12/03 12:28:55;;;;;;;2.53;1.58;;;25.70;32.00;;;;;;5033636;28;20885;-51
2020/12/03 12:31:21;;;;;;;1.80;1.60;;;25.80;31.90;;;;;;5033135;28;20050;-54
2020/12/03 12:33:48;;;;;;;4.68;1.90;;;25.80;31.70;;;;;;5023481;28;20091;-51
2020/12/03 12:36:14;;;;;;;5.00;1.70;;;25.90;31.70;;;;;;5023647;28;20045;-49
2020/12/03 12:38:40;;;;;;;3.05;1.88;;;25.90;31.60;;;;;;5022386;28;20021;-51
2020/12/03 12:41:06;;;;;;;2.63;1.88;;;25.90;31.40;;;;;;5033682;28;20041;-51
2020/12/03 12:43:31;;;;;;;2.85;1.58;;;26.00;31.40;;;;;;5030501;28;20456;-51
2020/12/03 12:45:57;;;;;;;2.67;1.70;;;25.90;31.30;;;;;;5032850;28;20044;-50
2020/12/03 12:48:23;;;;;;;3.33;2.08;;;26.00;31.30;;;;;;5033158;28;20033;-51
2020/12/03 12:50:49;;;;;;;2.20;1.58;;;26.00;31.20;;;;;;5033378;28;20083;-55
2020/12/03 12:53:15;;;;;;;2.00;1.70;;;26.00;31.10;;;;;;5009064;28;20399;-51
2020/12/03 12:55:40;;;;;;;2.97;1.85;;;26.00;31.10;;;;;;5036970;28;20984;-50
2020/12/03 12:58:06;;;;;;;2.53;1.70;;;26.00;31.00;;;;;;5022387;28;20028;-53
2020/12/03 13:00:32;;;;;;;2.53;1.65;;;26.10;31.00;;;;;;5016692;28;20084;-54
2020/12/03 13:02:58;;;;;;;2.20;1.65;;;26.10;30.90;;;;;;5017232;28;20432;-55
2020/12/03 13:05:23;;;;;;;2.50;1.58;;;26.10;30.90;;;;;;5018917;28;20492;-56
2020/12/03 13:07:49;;;;;;;3.60;1.27;;;26.00;30.80;;;;;;5032256;28;20033;-53
2020/12/03 13:10:17;;;;;;;1.30;1.15;;;26.00;30.80;;;;;;5036460;28;20429;-55
2020/12/03 13:12:43;;;;;;;1.85;1.30;;;25.90;30.80;;;;;;5036884;28;20033;-54
2020/12/03 13:15:09;;;;;;;2.33;1.55;;;25.90;31.00;;;;;;5028802;28;20033;-48